Letham, United Kingdom
Current Conditions -  °F | °C
As of 8:50 PM on Sunday 21 Dec 2014 (Local Time) from EGPN Reporting Station
Drizzle Drizzle  
Wind Chill: 10°   Ceiling: Unl
Heat Index: 10°   Visibility: 6mi
Dew Point:   Wind: 20mph
Humidity: 94%   Direction: 250°WSW
Pressure: 29.56"   Gusts: NA
Location:  56.62°N, 2.77°W
Report Text: EGPN 212050Z 25017KT 9999 -DZ FEW022 SCT032 10/09 Q1001
Loading
Personal Weather Stations






























Interactive Weather Map New forecast layout! Learn more

10-Day Weather Forecast

Advertisements
Track Severe Weather on mobile